createdAt,value
2019-02-14T00:00:34.146Z,102548.29
2019-02-14T00:03:05.747Z,102562.67
2019-02-14T00:05:38.019Z,102572.58
2019-02-14T00:08:08.743Z,102569.72
2019-02-14T00:10:39.841Z,102569.61
2019-02-14T00:13:11.176Z,102569.61
2019-02-14T00:15:41.937Z,102569.48
2019-02-14T00:18:13.536Z,102574.27
2019-02-14T00:20:45.151Z,102581.43
2019-02-14T00:23:16.871Z,102577.15
2019-02-14T00:25:47.908Z,102585.32
2019-02-14T00:28:21.800Z,102584.25
2019-02-14T00:30:52.802Z,102587.23
2019-02-14T00:33:24.885Z,102594.00
2019-02-14T00:35:56.105Z,102593.61
2019-02-14T00:38:27.489Z,102583.23
2019-02-14T00:40:59.444Z,102585.95
2019-02-14T00:43:31.353Z,102583.63
2019-02-14T00:46:02.538Z,102581.27
2019-02-14T00:48:33.680Z,102573.27
2019-02-14T00:51:04.894Z,102574.16
2019-02-14T00:53:36.070Z,102572.59
2019-02-14T00:56:07.222Z,102581.82
2019-02-14T00:58:40.037Z,102581.71
2019-02-14T01:01:12.106Z,102587.42
2019-02-14T01:03:43.299Z,102583.92
2019-02-14T01:06:14.956Z,102584.83
2019-02-14T01:08:46.592Z,102581.44
2019-02-14T01:11:18.273Z,102582.06
2019-02-14T01:13:50.031Z,102589.48
2019-02-14T01:16:21.986Z,102581.95
2019-02-14T01:18:55.785Z,102586.45
2019-02-14T01:21:27.349Z,102596.42
2019-02-14T01:23:58.990Z,102586.45
2019-02-14T01:26:30.225Z,102589.25
2019-02-14T01:29:01.347Z,102592.47
2019-02-14T01:31:33.669Z,102584.53
2019-02-14T01:34:05.043Z,102584.02
2019-02-14T01:36:36.039Z,102582.05
2019-02-14T01:39:07.917Z,102581.38
2019-02-14T01:41:39.599Z,102572.97
2019-02-14T01:44:10.681Z,102577.92
2019-02-14T01:46:42.386Z,102586.22
2019-02-14T01:49:14.708Z,102588.59
2019-02-14T01:51:45.754Z,102588.08
2019-02-14T01:54:17.459Z,102589.89
2019-02-14T01:56:48.644Z,102588.38
2019-02-14T01:59:20.186Z,102589.03
2019-02-14T02:01:51.159Z,102584.36
2019-02-14T02:04:22.721Z,102582.16
2019-02-14T02:06:53.762Z,102590.95
2019-02-14T02:09:25.195Z,102588.75
2019-02-14T02:11:56.060Z,102590.45
2019-02-14T02:14:28.409Z,102585.53
2019-02-14T02:16:59.834Z,102585.25
2019-02-14T02:19:32.844Z,102588.59
2019-02-14T02:22:03.783Z,102580.18
2019-02-14T02:24:34.426Z,102576.65
2019-02-14T02:27:05.143Z,102579.13
2019-02-14T02:29:36.466Z,102583.18
2019-02-14T02:32:08.008Z,102584.31
2019-02-14T02:34:39.232Z,102593.16
2019-02-14T02:37:10.306Z,102599.92
2019-02-14T02:39:41.468Z,102594.73
2019-02-14T02:42:12.851Z,102592.14
2019-02-14T02:44:44.068Z,102594.23
2019-02-14T02:47:15.077Z,102595.80
2019-02-14T02:49:46.298Z,102602.45
2019-02-14T02:52:17.725Z,102601.95
2019-02-14T02:54:48.720Z,102596.61
2019-02-14T02:57:19.684Z,102594.95
2019-02-14T02:59:50.910Z,102597.55
2019-02-14T03:02:22.653Z,102598.97
2019-02-14T03:04:53.605Z,102603.92
2019-02-14T03:07:24.928Z,102605.86
2019-02-14T03:09:55.858Z,102610.41
2019-02-14T03:12:29.100Z,102613.52
2019-02-14T03:15:00.663Z,102617.70
2019-02-14T03:17:33.163Z,102624.85
2019-02-14T03:20:05.163Z,102625.52
2019-02-14T03:22:36.499Z,102633.70
2019-02-14T03:25:10.396Z,102636.45
2019-02-14T03:27:41.557Z,102640.47
2019-02-14T03:30:15.685Z,102634.77
2019-02-14T03:32:46.924Z,102640.75
2019-02-14T03:35:18.660Z,102637.25
2019-02-14T03:37:50.142Z,102638.67
2019-02-14T03:40:21.563Z,102643.00
2019-02-14T03:42:54.121Z,102639.78
2019-02-14T03:45:26.379Z,102639.11
2019-02-14T03:47:58.057Z,102641.70
2019-02-14T03:50:29.139Z,102637.93
2019-02-14T03:53:00.778Z,102640.13
2019-02-14T03:55:32.672Z,102642.33
2019-02-14T03:58:03.816Z,102645.70
2019-02-14T04:00:35.151Z,102649.44
2019-02-14T04:03:06.263Z,102653.72
2019-02-14T04:05:38.640Z,102658.41
2019-02-14T04:08:10.879Z,102655.53
2019-02-14T04:10:42.092Z,102652.14
2019-02-14T04:13:12.977Z,102654.62
2019-02-14T04:15:44.208Z,102655.36
2019-02-14T04:18:15.846Z,102662.52
2019-02-14T04:20:48.726Z,102655.24
2019-02-14T04:23:20.061Z,102657.20
2019-02-14T04:25:50.556Z,102656.30
2019-02-14T04:28:21.874Z,102658.23
2019-02-14T04:30:53.200Z,102659.81
2019-02-14T04:33:24.179Z,102670.74
2019-02-14T04:35:55.069Z,102665.55
2019-02-14T04:38:26.362Z,102668.50
2019-02-14T04:40:57.376Z,102660.98
2019-02-14T04:43:29.009Z,102670.70
2019-02-14T04:46:00.389Z,102677.07
2019-02-14T04:48:31.262Z,102676.79
2019-02-14T04:51:02.383Z,102685.59
2019-02-14T04:53:34.985Z,102679.88
2019-02-14T04:56:05.920Z,102678.59
2019-02-14T04:58:37.032Z,102687.44
2019-02-14T05:01:09.355Z,102686.49
2019-02-14T05:03:40.234Z,102698.95
2019-02-14T05:06:14.398Z,102696.12
2019-02-14T05:08:46.140Z,102700.77
2019-02-14T05:11:17.504Z,102700.02
2019-02-14T05:13:48.903Z,102694.16
2019-02-14T05:16:19.810Z,102691.58
2019-02-14T05:18:50.883Z,102687.56
2019-02-14T05:21:23.784Z,102696.02
2019-02-14T05:23:54.365Z,102704.19
2019-02-14T05:26:25.549Z,102709.11
2019-02-14T05:28:56.671Z,102706.23
2019-02-14T05:31:28.193Z,102700.14
2019-02-14T05:33:59.272Z,102704.70
2019-02-14T05:36:30.222Z,102705.22
2019-02-14T05:39:03.507Z,102715.42
2019-02-14T05:41:35.394Z,102718.41
2019-02-14T05:44:06.859Z,102713.09
2019-02-14T05:46:39.062Z,102713.45
2019-02-14T05:49:10.975Z,102716.20
2019-02-14T05:51:43.038Z,102720.71
2019-02-14T05:54:14.965Z,102726.17
2019-02-14T05:56:46.866Z,102725.12
2019-02-14T05:59:18.764Z,102723.70
2019-02-14T06:01:49.321Z,102729.56
2019-02-14T06:04:20.564Z,102734.86
2019-02-14T06:06:51.192Z,102738.19
2019-02-14T06:09:22.192Z,102744.88
2019-02-14T06:11:52.851Z,102739.86
2019-02-14T06:14:23.938Z,102742.97
2019-02-14T06:16:54.805Z,102755.05
2019-02-14T06:19:25.826Z,102758.42
2019-02-14T06:21:57.308Z,102759.59
2019-02-14T06:24:28.299Z,102760.12
2019-02-14T06:26:59.910Z,102759.05
2019-02-14T06:29:31.806Z,102774.05
2019-02-14T06:32:02.770Z,102781.34
2019-02-14T06:34:33.490Z,102781.73
2019-02-14T06:37:09.618Z,102778.23
2019-02-14T06:39:37.031Z,102784.03
2019-02-14T06:42:08.225Z,102780.82
2019-02-14T06:44:39.694Z,102786.66
2019-02-14T06:47:10.966Z,102782.86
2019-02-14T06:49:41.947Z,102790.81
2019-02-14T06:52:13.682Z,102789.73
2019-02-14T06:54:45.037Z,102796.72
2019-02-14T06:57:18.520Z,102797.20
2019-02-14T06:59:50.518Z,102796.81
2019-02-14T07:02:22.073Z,102796.72
2019-02-14T07:04:53.914Z,102797.00
2019-02-14T07:07:26.155Z,102793.02
2019-02-14T07:09:57.581Z,102797.68
2019-02-14T07:12:29.128Z,102796.84
2019-02-14T07:15:00.309Z,102797.13
2019-02-14T07:17:31.336Z,102803.00
2019-02-14T07:20:02.012Z,102797.00
2019-02-14T07:22:32.745Z,102791.42
2019-02-14T07:25:03.901Z,102788.34
2019-02-14T07:27:34.613Z,102790.83
2019-02-14T07:30:08.623Z,102792.91
2019-02-14T07:32:39.319Z,102796.00
2019-02-14T07:35:10.590Z,102798.98
2019-02-14T07:37:41.806Z,102789.51
2019-02-14T07:40:14.351Z,102791.03
2019-02-14T07:42:44.945Z,102797.91
2019-02-14T07:45:18.063Z,102804.17
2019-02-14T07:47:49.341Z,102814.38
2019-02-14T07:50:20.543Z,102818.17
2019-02-14T07:52:51.303Z,102817.78
2019-02-14T07:55:22.335Z,102821.57
2019-02-14T07:57:53.495Z,102819.63
2019-02-14T08:00:24.695Z,102828.34
2019-02-14T08:02:56.422Z,102845.77
2019-02-14T08:05:27.271Z,102852.27
2019-02-14T08:07:58.141Z,102855.97
2019-02-14T08:10:29.213Z,102855.22
2019-02-14T08:13:00.334Z,102845.97
2019-02-14T08:15:31.381Z,102830.30
2019-02-14T08:18:02.584Z,102829.63
2019-02-14T08:20:34.016Z,102830.02
2019-02-14T08:23:05.239Z,102830.02
2019-02-14T08:25:35.703Z,102829.16
2019-02-14T08:28:06.863Z,102826.80
2019-02-14T08:30:37.335Z,102827.86
2019-02-14T08:33:08.937Z,102828.38
2019-02-14T08:35:39.945Z,102823.58
2019-02-14T08:38:11.816Z,102826.57
2019-02-14T08:40:43.774Z,102830.85
2019-02-14T08:43:15.496Z,102842.16
2019-02-14T08:45:46.111Z,102849.09
2019-02-14T08:48:17.111Z,102850.11
2019-02-14T08:50:48.942Z,102851.92
2019-02-14T08:53:21.127Z,102846.11
2019-02-14T08:55:51.896Z,102840.42
2019-02-14T08:58:22.695Z,102830.16
2019-02-14T09:00:53.510Z,102827.34
2019-02-14T09:03:24.223Z,102815.94
2019-02-14T09:05:55.855Z,102802.56
2019-02-14T09:08:37.268Z,102808.95
2019-02-14T09:11:13.505Z,102804.47
2019-02-14T09:13:44.066Z,102806.80
2019-02-14T09:16:14.426Z,102804.31
2019-02-14T09:18:46.029Z,102804.20
2019-02-14T09:21:16.787Z,102794.04
2019-02-14T09:23:48.141Z,102785.73
2019-02-14T09:26:18.593Z,102797.55
2019-02-14T09:29:01.046Z,102804.47
2019-02-14T09:31:32.307Z,102802.13
2019-02-14T09:34:09.043Z,102798.95
2019-02-14T09:36:39.586Z,102805.17
2019-02-14T09:39:10.002Z,102812.09
2019-02-14T09:41:40.701Z,102812.61
2019-02-14T09:44:11.171Z,102809.78
2019-02-14T09:46:41.741Z,102809.73
2019-02-14T09:49:12.175Z,102815.09
2019-02-14T09:51:42.663Z,102824.22
2019-02-14T09:54:14.434Z,102828.83
2019-02-14T09:56:44.833Z,102830.67
2019-02-14T09:59:15.308Z,102837.29
2019-02-14T10:01:46.844Z,102838.40
2019-02-14T10:04:19.826Z,102843.08
2019-02-14T10:06:56.737Z,102837.88
2019-02-14T10:09:29.932Z,102849.34
2019-02-14T10:12:00.429Z,102840.42
2019-02-14T10:14:31.618Z,102841.88
2019-02-14T10:17:02.298Z,102839.16
2019-02-14T10:19:34.344Z,102837.48
2019-02-14T10:22:05.027Z,102827.87
2019-02-14T10:24:35.483Z,102834.88
2019-02-14T10:27:06.268Z,102834.76
2019-02-14T10:29:36.886Z,102833.07
2019-02-14T10:32:08.712Z,102828.02
2019-02-14T10:34:39.706Z,102821.17
2019-02-14T10:37:11.147Z,102814.70
2019-02-14T10:39:42.389Z,102811.95
2019-02-14T10:42:18.426Z,102829.24
2019-02-14T10:44:49.067Z,102824.13
2019-02-14T10:50:45.745Z,102830.11
2019-02-14T10:53:19.328Z,102831.29
2019-02-14T10:55:52.840Z,102833.11
2019-02-14T10:58:24.649Z,102825.55
2019-02-14T11:00:55.670Z,102826.84
2019-02-14T11:03:25.974Z,102822.43
2019-02-14T11:05:56.357Z,102818.41
2019-02-14T11:08:31.793Z,102821.92
2019-02-14T11:10:59.587Z,102818.14
2019-02-14T11:13:31.372Z,102812.20
2019-02-14T11:16:01.675Z,102810.77
2019-02-14T11:18:31.955Z,102810.89
2019-02-14T11:21:02.198Z,102806.88
2019-02-14T11:23:32.522Z,102811.72
2019-02-14T11:26:03.174Z,102814.58
2019-02-14T11:28:33.440Z,102821.47
2019-02-14T11:31:03.770Z,102825.14
2019-02-14T11:33:34.345Z,102816.01
2019-02-14T11:36:10.066Z,102829.13
2019-02-14T11:38:41.148Z,102832.51
2019-02-14T11:41:11.662Z,102826.92
2019-02-14T11:43:42.017Z,102838.10
2019-02-14T11:46:12.310Z,102838.89
2019-02-14T11:48:43.612Z,102825.80
2019-02-14T11:51:13.926Z,102821.41
2019-02-14T11:53:44.176Z,102829.99
2019-02-14T11:56:14.523Z,102830.51
2019-02-14T11:58:44.795Z,102832.84
2019-02-14T12:01:15.074Z,102840.22
2019-02-14T12:03:45.542Z,102835.23
2019-02-14T12:06:17.752Z,102843.55
2019-02-14T12:08:59.417Z,102842.32
2019-02-14T12:11:19.992Z,102841.14
2019-02-14T12:13:50.336Z,102850.86
2019-02-14T12:16:20.614Z,102852.95
2019-02-14T12:18:50.883Z,102851.77
2019-02-14T12:21:21.221Z,102855.44
2019-02-14T12:23:51.513Z,102850.13
2019-02-14T12:26:23.106Z,102854.05
2019-02-14T12:28:53.390Z,102856.42
2019-02-14T12:31:23.648Z,102853.31
2019-02-14T12:33:53.967Z,102853.98
2019-02-14T12:36:24.258Z,102847.36
2019-02-14T12:38:54.734Z,102839.28
2019-02-14T12:41:25.089Z,102843.58
2019-02-14T12:43:55.377Z,102844.48
2019-02-14T12:46:25.761Z,102834.59
2019-02-14T12:48:56.059Z,102837.20
2019-02-14T12:51:26.364Z,102843.30
2019-02-14T12:53:56.704Z,102838.65
2019-02-14T12:56:27.007Z,102840.86
2019-02-14T12:58:57.347Z,102836.68
2019-02-14T13:01:27.633Z,102824.31
2019-02-14T13:03:57.971Z,102812.13
2019-02-14T13:06:28.349Z,102819.17
2019-02-14T13:08:58.993Z,102812.28
2019-02-14T13:11:29.494Z,102817.48
2019-02-14T13:14:02.356Z,102814.91
2019-02-14T13:16:32.760Z,102812.97
2019-02-14T13:19:03.032Z,102812.28
2019-02-14T13:21:33.470Z,102813.06
2019-02-14T13:24:03.788Z,102808.53
2019-02-14T13:26:34.907Z,102802.27
2019-02-14T13:29:05.652Z,102799.28
2019-02-14T13:31:37.165Z,102805.78
2019-02-14T13:34:08.449Z,102801.06
2019-02-14T13:36:38.943Z,102806.78
2019-02-14T13:39:09.458Z,102809.23
2019-02-14T13:41:39.912Z,102807.94
2019-02-14T13:44:10.209Z,102811.95
2019-02-14T13:46:40.576Z,102811.28
2019-02-14T13:49:10.860Z,102805.03
2019-02-14T13:51:41.278Z,102798.69
2019-02-14T13:54:11.562Z,102801.41
2019-02-14T13:56:41.835Z,102808.81
2019-02-14T13:59:12.172Z,102800.62
2019-02-14T14:01:42.595Z,102797.59
2019-02-14T14:04:13.165Z,102797.74
2019-02-14T14:06:43.574Z,102799.95
2019-02-14T14:09:13.922Z,102796.29
2019-02-14T14:11:44.415Z,102802.94
2019-02-14T14:14:14.829Z,102803.69
2019-02-14T14:16:45.121Z,102798.49
2019-02-14T14:19:15.542Z,102801.21
2019-02-14T14:21:46.395Z,102797.70
2019-02-14T14:24:16.846Z,102792.91
2019-02-14T14:26:47.326Z,102791.72
2019-02-14T14:29:17.598Z,102796.92
2019-02-14T14:31:48.175Z,102797.43
2019-02-14T14:34:19.587Z,102796.77
2019-02-14T14:36:49.850Z,102807.70
2019-02-14T14:39:20.207Z,102808.06
2019-02-14T14:41:51.019Z,102810.02
2019-02-14T14:44:24.456Z,102807.16
2019-02-14T14:46:55.167Z,102805.58
2019-02-14T14:49:25.530Z,102792.70
2019-02-14T14:51:55.921Z,102798.69
2019-02-14T14:54:26.247Z,102801.17
2019-02-14T14:56:56.576Z,102803.48
2019-02-14T14:59:26.949Z,102804.83
2019-02-14T15:01:57.377Z,102796.77
2019-02-14T15:04:27.922Z,102807.89
2019-02-14T15:06:58.301Z,102801.80
2019-02-14T15:09:28.769Z,102793.61
2019-02-14T15:11:59.668Z,102797.62
2019-02-14T15:14:31.254Z,102796.88
2019-02-14T15:17:01.531Z,102793.49
2019-02-14T15:19:32.883Z,102792.08
2019-02-14T15:22:03.251Z,102788.84
2019-02-14T15:24:33.538Z,102789.23
2019-02-14T15:27:03.892Z,102784.63
2019-02-14T15:29:34.235Z,102792.16
2019-02-14T15:32:04.596Z,102791.41
2019-02-14T15:34:34.954Z,102784.05
2019-02-14T15:37:06.223Z,102780.81
2019-02-14T15:39:39.026Z,102789.91
2019-02-14T15:42:09.306Z,102791.28
2019-02-14T15:44:39.679Z,102796.19
2019-02-14T15:47:10.100Z,102792.79
2019-02-14T15:49:40.404Z,102789.91
2019-02-14T15:52:10.690Z,102798.84
2019-02-14T15:54:41.019Z,102795.47
2019-02-14T15:57:11.330Z,102801.20
2019-02-14T15:59:43.474Z,102801.59
2019-02-14T16:02:13.819Z,102803.41
2019-02-14T16:04:45.974Z,102803.64
2019-02-14T16:07:17.628Z,102804.38
2019-02-14T16:09:48.805Z,102797.77
2019-02-14T16:12:20.009Z,102801.77
2019-02-14T16:14:51.353Z,102807.47
2019-02-14T16:17:21.760Z,102812.27
2019-02-14T16:19:52.059Z,102811.99
2019-02-14T16:22:29.801Z,102814.59
2019-02-14T16:24:54.396Z,102812.44
2019-02-14T16:27:26.831Z,102810.70
2019-02-14T16:29:57.106Z,102813.45
2019-02-14T16:32:27.381Z,102815.88
2019-02-14T16:34:57.660Z,102815.99
2019-02-14T16:37:28.017Z,102808.36
2019-02-14T16:39:58.569Z,102811.81
2019-02-14T16:42:30.647Z,102811.92
2019-02-14T16:45:00.982Z,102808.97
2019-02-14T16:47:31.363Z,102807.91
2019-02-14T16:50:01.703Z,102810.09
2019-02-14T16:52:32.961Z,102807.00
2019-02-14T16:55:03.236Z,102809.59
2019-02-14T16:57:33.557Z,102811.00
2019-02-14T17:00:04.492Z,102809.02
2019-02-14T17:02:36.519Z,102801.36
2019-02-14T17:05:06.824Z,102798.75
2019-02-14T17:07:37.170Z,102807.56
2019-02-14T17:10:10.160Z,102813.80
2019-02-14T17:12:43.442Z,102822.89
2019-02-14T17:15:13.930Z,102826.91
2019-02-14T17:17:44.362Z,102825.48
2019-02-14T17:20:14.726Z,102831.58
2019-02-14T17:22:45.207Z,102833.10
2019-02-14T17:25:17.264Z,102834.40
2019-02-14T17:27:47.867Z,102835.02
2019-02-14T17:30:18.142Z,102829.91
2019-02-14T17:32:48.451Z,102825.73
2019-02-14T17:35:18.875Z,102816.77
2019-02-14T17:37:49.232Z,102812.36
2019-02-14T17:40:19.556Z,102806.56
2019-02-14T17:42:50.173Z,102810.47
2019-02-14T17:45:20.533Z,102808.14
2019-02-14T17:47:50.879Z,102806.95
2019-02-14T17:50:21.222Z,102798.20
2019-02-14T17:52:51.533Z,102796.23
2019-02-14T17:55:22.052Z,102796.72
2019-02-14T17:57:52.390Z,102792.92
2019-02-14T18:00:23.026Z,102799.41
2019-02-14T18:02:53.401Z,102797.95
2019-02-14T18:05:23.761Z,102799.22
2019-02-14T18:07:54.067Z,102807.97
2019-02-14T18:10:26.265Z,102808.00
2019-02-14T18:12:57.506Z,102804.08
2019-02-14T18:15:28.585Z,102807.48
2019-02-14T18:17:59.158Z,102806.19
2019-02-14T18:20:29.515Z,102807.32
2019-02-14T18:22:59.868Z,102807.61
2019-02-14T18:25:30.180Z,102807.12
2019-02-14T18:28:00.739Z,102807.38
2019-02-14T18:30:31.048Z,102810.49
2019-02-14T18:33:01.300Z,102812.17
2019-02-14T18:35:31.656Z,102808.12
2019-02-14T18:38:02.017Z,102816.69
2019-02-14T18:40:32.389Z,102809.69
2019-02-14T18:43:02.742Z,102813.06
2019-02-14T18:45:33.078Z,102813.06
2019-02-14T18:48:04.381Z,102808.78
2019-02-14T18:50:34.640Z,102811.19
2019-02-14T18:53:05.057Z,102819.87
2019-02-14T18:55:35.363Z,102811.19
2019-02-14T18:58:05.769Z,102809.20
2019-02-14T19:00:36.324Z,102807.00
2019-02-14T19:03:06.619Z,102809.08
2019-02-14T19:05:36.882Z,102811.12
2019-02-14T19:08:08.507Z,102801.81
2019-02-14T19:10:39.388Z,102808.52
2019-02-14T19:13:09.689Z,102806.61
2019-02-14T19:15:40.162Z,102810.21
2019-02-14T19:18:10.488Z,102803.34
2019-02-14T19:20:40.760Z,102801.62
2019-02-14T19:23:11.084Z,102805.91
2019-02-14T19:25:41.378Z,102809.23
2019-02-14T19:28:13.245Z,102806.30
2019-02-14T19:30:43.593Z,102812.13
2019-02-14T19:33:13.968Z,102814.59
2019-02-14T19:35:44.297Z,102813.13
2019-02-14T19:38:14.655Z,102813.39
2019-02-14T19:40:45.003Z,102815.20
2019-02-14T19:43:15.417Z,102807.42
2019-02-14T19:45:45.729Z,102805.61
2019-02-14T19:48:16.270Z,102802.83
2019-02-14T19:50:46.788Z,102797.73
2019-02-14T19:53:17.103Z,102797.73
2019-02-14T19:55:47.424Z,102792.26
2019-02-14T19:58:17.861Z,102783.58
2019-02-14T20:00:48.213Z,102781.20
2019-02-14T20:03:18.518Z,102780.59
2019-02-14T20:05:48.969Z,102785.09
2019-02-14T20:08:19.244Z,102785.09
2019-02-14T20:10:49.599Z,102779.39
2019-02-14T20:13:21.450Z,102783.92
2019-02-14T20:15:52.683Z,102781.30
2019-02-14T20:18:55.751Z,102777.31
2019-02-14T20:21:44.143Z,102781.20
2019-02-14T20:24:16.013Z,102784.02
2019-02-14T20:26:47.268Z,102786.17
2019-02-14T20:29:21.810Z,102787.56
2019-02-14T20:31:52.888Z,102780.52
2019-02-14T20:34:24.717Z,102777.80
2019-02-14T20:36:57.336Z,102770.41
2019-02-14T20:39:28.860Z,102774.14
2019-02-14T20:42:00.277Z,102769.34
2019-02-14T20:44:32.999Z,102771.16
2019-02-14T20:47:05.319Z,102774.82
2019-02-14T20:49:37.608Z,102773.14
2019-02-14T20:52:09.189Z,102774.86
2019-02-14T20:54:41.379Z,102779.39
2019-02-14T20:57:13.319Z,102784.70
2019-02-14T20:59:44.401Z,102787.81
2019-02-14T21:02:15.779Z,102784.02
2019-02-14T21:04:47.699Z,102788.86
2019-02-14T21:07:19.578Z,102789.89
2019-02-14T21:09:51.547Z,102785.52
2019-02-14T21:12:22.466Z,102793.55
2019-02-14T21:14:54.562Z,102796.53
2019-02-14T21:17:25.543Z,102795.56
2019-02-14T21:19:57.250Z,102797.73
2019-02-14T21:22:29.189Z,102796.66
2019-02-14T21:25:01.161Z,102800.77
2019-02-14T21:27:35.091Z,102808.45
2019-02-14T21:30:09.378Z,102805.50
2019-02-14T21:32:41.337Z,102798.73
2019-02-14T21:35:12.279Z,102798.05
2019-02-14T21:37:43.535Z,102807.25
2019-02-14T21:40:16.509Z,102808.91
2019-02-14T21:42:47.478Z,102801.95
2019-02-14T21:45:18.505Z,102807.26
2019-02-14T21:47:51.016Z,102805.77
2019-02-14T21:50:22.927Z,102805.54
2019-02-14T21:52:54.807Z,102797.86
2019-02-14T21:55:26.929Z,102793.90
2019-02-14T21:57:59.116Z,102791.05
2019-02-14T22:00:31.633Z,102788.69
2019-02-14T22:03:02.480Z,102800.73
2019-02-14T22:05:34.071Z,102800.47
2019-02-14T22:08:07.290Z,102795.84
2019-02-14T22:10:38.975Z,102802.62
2019-02-14T22:13:10.236Z,102798.47
2019-02-14T22:15:42.189Z,102797.59
2019-02-14T22:18:13.231Z,102791.75
2019-02-14T22:20:44.401Z,102798.45
2019-02-14T22:23:15.840Z,102804.42
2019-02-14T22:25:46.906Z,102799.97
2019-02-14T22:28:18.042Z,102803.25
2019-02-14T22:30:51.047Z,102795.09
2019-02-14T22:33:22.443Z,102785.86
2019-02-14T22:35:54.188Z,102790.18
2019-02-14T22:38:25.508Z,102788.20
2019-02-14T22:40:57.442Z,102794.06
2019-02-14T22:43:28.036Z,102790.56
2019-02-14T22:45:59.286Z,102791.70
2019-02-14T22:48:30.862Z,102788.07
2019-02-14T22:51:02.101Z,102784.83
2019-02-14T22:53:34.739Z,102787.68
2019-02-14T22:56:05.899Z,102792.27
2019-02-14T22:58:36.860Z,102793.89
2019-02-14T23:01:07.497Z,102791.39
2019-02-14T23:03:38.778Z,102787.46
2019-02-14T23:06:09.522Z,102781.52
2019-02-14T23:08:41.346Z,102785.27
2019-02-14T23:11:12.467Z,102782.55
2019-02-14T23:13:44.060Z,102785.75
2019-02-14T23:16:15.326Z,102792.45
2019-02-14T23:18:46.928Z,102802.52
2019-02-14T23:21:18.552Z,102801.39
2019-02-14T23:23:49.713Z,102807.17
2019-02-14T23:26:21.276Z,102805.83
2019-02-14T23:28:53.359Z,102803.24
2019-02-14T23:31:24.921Z,102806.30
2019-02-14T23:33:55.910Z,102801.04
2019-02-14T23:36:28.986Z,102806.55
2019-02-14T23:39:00.522Z,102801.59
2019-02-14T23:41:32.920Z,102800.91
2019-02-14T23:44:04.426Z,102807.84
2019-02-14T23:46:36.109Z,102802.66
2019-02-14T23:49:07.745Z,102798.25
2019-02-14T23:51:39.341Z,102795.43
2019-02-14T23:54:10.944Z,102802.16
2019-02-14T23:56:42.172Z,102800.94
2019-02-14T23:59:13.402Z,102804.23
